sensor_id;sensor_type;location;lat;lon;timestamp;pressure;altitude;pressure_sealevel;temperature;humidity
10064;BME280;5071;52.360;13.134;2022-12-11T00:01:42;100729.78;;;-2.96;84.29
10064;BME280;5071;52.360;13.134;2022-12-11T00:06:44;100732.69;;;-2.88;84.72
10064;BME280;5071;52.360;13.134;2022-12-11T00:11:47;100721.03;;;-2.77;84.51
10064;BME280;5071;52.360;13.134;2022-12-11T00:16:50;100718.50;;;-2.75;84.35
10064;BME280;5071;52.360;13.134;2022-12-11T00:21:53;100715.25;;;-2.69;84.44
10064;BME280;5071;52.360;13.134;2022-12-11T00:26:55;100717.25;;;-2.85;84.99
10064;BME280;5071;52.360;13.134;2022-12-11T00:31:58;100724.19;;;-2.84;85.16
10064;BME280;5071;52.360;13.134;2022-12-11T00:37:01;100712.78;;;-2.87;85.48
10064;BME280;5071;52.360;13.134;2022-12-11T00:42:03;100713.44;;;-2.93;85.45
10064;BME280;5071;52.360;13.134;2022-12-11T00:47:06;100718.75;;;-2.90;85.53
10064;BME280;5071;52.360;13.134;2022-12-11T00:52:09;100716.41;;;-2.84;85.41
10064;BME280;5071;52.360;13.134;2022-12-11T00:57:11;100704.25;;;-2.85;85.41
10064;BME280;5071;52.360;13.134;2022-12-11T01:02:14;100706.00;;;-2.84;86.10
10064;BME280;5071;52.360;13.134;2022-12-11T01:07:16;100697.28;;;-2.86;86.16
10064;BME280;5071;52.360;13.134;2022-12-11T01:12:18;100691.28;;;-2.85;86.50
10064;BME280;5071;52.360;13.134;2022-12-11T01:17:22;100699.00;;;-2.86;85.97
10064;BME280;5071;52.360;13.134;2022-12-11T01:22:24;100698.50;;;-2.78;85.98
10064;BME280;5071;52.360;13.134;2022-12-11T01:27:26;100705.44;;;-2.77;85.74
10064;BME280;5071;52.360;13.134;2022-12-11T01:32:29;100700.00;;;-2.83;85.67
10064;BME280;5071;52.360;13.134;2022-12-11T01:37:31;100706.72;;;-2.88;86.25
10064;BME280;5071;52.360;13.134;2022-12-11T01:42:34;100700.66;;;-2.88;86.42
10064;BME280;5071;52.360;13.134;2022-12-11T01:47:38;100704.97;;;-2.89;86.67
10064;BME280;5071;52.360;13.134;2022-12-11T01:52:40;100699.78;;;-2.89;86.18
10064;BME280;5071;52.360;13.134;2022-12-11T01:57:46;100698.59;;;-2.75;86.47
10064;BME280;5071;52.360;13.134;2022-12-11T02:02:50;100703.09;;;-2.70;86.14
10064;BME280;5071;52.360;13.134;2022-12-11T02:07:55;100698.28;;;-2.82;86.28
10064;BME280;5071;52.360;13.134;2022-12-11T02:13:04;100704.31;;;-2.83;86.76
10064;BME280;5071;52.360;13.134;2022-12-11T02:18:17;100710.50;;;-2.80;86.59
10064;BME280;5071;52.360;13.134;2022-12-11T02:28:59;100713.09;;;-2.80;87.18
10064;BME280;5071;52.360;13.134;2022-12-11T02:34:07;100703.06;;;-2.72;87.06
10064;BME280;5071;52.360;13.134;2022-12-11T02:39:13;100708.34;;;-2.69;86.60
10064;BME280;5071;52.360;13.134;2022-12-11T02:44:20;100703.16;;;-2.69;87.26
10064;BME280;5071;52.360;13.134;2022-12-11T02:49:25;100711.91;;;-2.67;87.24
10064;BME280;5071;52.360;13.134;2022-12-11T02:54:31;100700.63;;;-2.67;87.29
10064;BME280;5071;52.360;13.134;2022-12-11T02:59:37;100696.56;;;-2.82;87.93
10064;BME280;5071;52.360;13.134;2022-12-11T03:04:41;100705.06;;;-2.86;88.25
10064;BME280;5071;52.360;13.134;2022-12-11T03:09:45;100700.13;;;-2.80;87.84
10064;BME280;5071;52.360;13.134;2022-12-11T03:14:49;100703.50;;;-2.82;87.72
10064;BME280;5071;52.360;13.134;2022-12-11T03:19:54;100707.47;;;-2.69;87.77
10064;BME280;5071;52.360;13.134;2022-12-11T03:25:03;100708.28;;;-2.70;87.26
10064;BME280;5071;52.360;13.134;2022-12-11T03:30:12;100698.97;;;-2.65;87.36
10064;BME280;5071;52.360;13.134;2022-12-11T03:35:18;100708.28;;;-2.70;87.02
10064;BME280;5071;52.360;13.134;2022-12-11T03:40:22;100688.53;;;-2.88;87.35
10064;BME280;5071;52.360;13.134;2022-12-11T03:45:28;100700.13;;;-2.80;87.82
10064;BME280;5071;52.360;13.134;2022-12-11T03:50:32;100695.91;;;-2.78;87.74
10064;BME280;5071;52.360;13.134;2022-12-11T03:55:36;100706.09;;;-2.82;87.88
10064;BME280;5071;52.360;13.134;2022-12-11T04:00:40;100702.78;;;-2.78;87.93
10064;BME280;5071;52.360;13.134;2022-12-11T04:05:44;100700.38;;;-2.74;88.29
10064;BME280;5071;52.360;13.134;2022-12-11T04:10:46;100695.19;;;-2.74;87.87
10064;BME280;5071;52.360;13.134;2022-12-11T04:15:50;100700.38;;;-2.74;88.08
10064;BME280;5071;52.360;13.134;2022-12-11T04:20:53;100703.22;;;-2.67;87.96
10064;BME280;5071;52.360;13.134;2022-12-11T04:26:03;100697.09;;;-2.69;88.03
10064;BME280;5071;52.360;13.134;2022-12-11T04:31:10;100701.56;;;-2.65;88.14
10064;BME280;5071;52.360;13.134;2022-12-11T04:36:13;100695.28;;;-2.70;88.60
10064;BME280;5071;52.360;13.134;2022-12-11T04:41:15;100699.09;;;-2.62;88.30
10064;BME280;5071;52.360;13.134;2022-12-11T04:46:20;100683.38;;;-2.65;88.89
10064;BME280;5071;52.360;13.134;2022-12-11T04:51:23;100697.47;;;-2.60;89.03
10064;BME280;5071;52.360;13.134;2022-12-11T04:56:25;100696.44;;;-2.64;89.07
10064;BME280;5071;52.360;13.134;2022-12-11T05:01:29;100705.50;;;-2.54;89.12
10064;BME280;5071;52.360;13.134;2022-12-11T05:06:31;100689.09;;;-2.53;89.16
10064;BME280;5071;52.360;13.134;2022-12-11T05:11:33;100675.38;;;-2.49;89.43
10064;BME280;5071;52.360;13.134;2022-12-11T05:16:36;100677.69;;;-2.57;89.62
10064;BME280;5071;52.360;13.134;2022-12-11T05:21:38;100673.84;;;-2.66;90.29
10064;BME280;5071;52.360;13.134;2022-12-11T05:26:41;100662.16;;;-2.55;90.03
10064;BME280;5071;52.360;13.134;2022-12-11T05:31:44;100667.44;;;-2.52;89.94
10064;BME280;5071;52.360;13.134;2022-12-11T05:36:46;100654.59;;;-2.49;90.28
10064;BME280;5071;52.360;13.134;2022-12-11T05:41:48;100666.28;;;-2.60;90.49
10064;BME280;5071;52.360;13.134;2022-12-11T05:46:52;100656.34;;;-2.48;90.16
10064;BME280;5071;52.360;13.134;2022-12-11T05:51:54;100658.00;;;-2.50;90.33
10064;BME280;5071;52.360;13.134;2022-12-11T05:56:56;100648.16;;;-2.59;90.66
10064;BME280;5071;52.360;13.134;2022-12-11T06:02:00;100651.84;;;-2.52;90.85
10064;BME280;5071;52.360;13.134;2022-12-11T06:07:02;100655.25;;;-2.55;90.49
10064;BME280;5071;52.360;13.134;2022-12-11T06:12:04;100647.22;;;-2.61;90.74
10064;BME280;5071;52.360;13.134;2022-12-11T06:17:08;100647.00;;;-2.65;91.18
10064;BME280;5071;52.360;13.134;2022-12-11T06:22:09;100644.63;;;-2.61;90.92
10064;BME280;5071;52.360;13.134;2022-12-11T06:27:12;100646.94;;;-2.67;91.13
10064;BME280;5071;52.360;13.134;2022-12-11T06:32:15;100652.06;;;-2.68;91.13
10064;BME280;5071;52.360;13.134;2022-12-11T06:37:17;100660.94;;;-2.63;90.77
10064;BME280;5071;52.360;13.134;2022-12-11T06:42:19;100662.25;;;-2.52;90.13
10064;BME280;5071;52.360;13.134;2022-12-11T06:47:23;100659.84;;;-2.70;90.43
10064;BME280;5071;52.360;13.134;2022-12-11T06:52:25;100667.63;;;-2.70;90.18
10064;BME280;5071;52.360;13.134;2022-12-11T06:57:27;100659.69;;;-2.73;90.13
10064;BME280;5071;52.360;13.134;2022-12-11T07:02:30;100668.56;;;-2.68;89.78
10064;BME280;5071;52.360;13.134;2022-12-11T07:07:32;100671.34;;;-2.63;89.89
10064;BME280;5071;52.360;13.134;2022-12-11T07:12:34;100660.84;;;-2.66;90.01
10064;BME280;5071;52.360;13.134;2022-12-11T07:17:38;100660.94;;;-2.63;90.32
10064;BME280;5071;52.360;13.134;2022-12-11T07:22:40;100660.13;;;-2.62;90.41
10064;BME280;5071;52.360;13.134;2022-12-11T07:27:47;100663.81;;;-2.57;90.39
10064;BME280;5071;52.360;13.134;2022-12-11T07:32:50;100666.16;;;-2.63;91.23
10064;BME280;5071;52.360;13.134;2022-12-11T07:37:53;100682.81;;;-2.58;91.29
10064;BME280;5071;52.360;13.134;2022-12-11T07:42:55;100676.66;;;-2.60;91.69
10064;BME280;5071;52.360;13.134;2022-12-11T07:47:59;100679.06;;;-2.65;91.29
10064;BME280;5071;52.360;13.134;2022-12-11T07:53:01;100674.66;;;-2.67;92.59
10064;BME280;5071;52.360;13.134;2022-12-11T07:58:03;100672.47;;;-2.57;92.30
10064;BME280;5071;52.360;13.134;2022-12-11T08:03:06;100683.75;;;-2.56;92.10
10064;BME280;5071;52.360;13.134;2022-12-11T08:08:07;100681.88;;;-2.60;91.75
10064;BME280;5071;52.360;13.134;2022-12-11T08:13:10;100676.66;;;-2.60;91.51
10064;BME280;5071;52.360;13.134;2022-12-11T08:18:14;100680.72;;;-2.46;90.75
10064;BME280;5071;52.360;13.134;2022-12-11T08:23:16;100682.31;;;-2.48;90.54
10064;BME280;5071;52.360;13.134;2022-12-11T08:28:18;100675.50;;;-2.46;89.90
10064;BME280;5071;52.360;13.134;2022-12-11T08:33:21;100682.53;;;-2.43;89.25
10064;BME280;5071;52.360;13.134;2022-12-11T08:38:23;100690.97;;;-2.49;89.32
10064;BME280;5071;52.360;13.134;2022-12-11T08:43:26;100682.81;;;-2.36;88.72
10064;BME280;5071;52.360;13.134;2022-12-11T08:48:29;100680.38;;;-2.31;87.68
10064;BME280;5071;52.360;13.134;2022-12-11T08:53:32;100669.81;;;-2.36;86.38
10064;BME280;5071;52.360;13.134;2022-12-11T08:58:35;100674.16;;;-2.36;85.26
10064;BME280;5071;52.360;13.134;2022-12-11T09:03:39;100677.97;;;-2.26;83.72
10064;BME280;5071;52.360;13.134;2022-12-11T09:08:42;100690.47;;;-2.40;83.48
10064;BME280;5071;52.360;13.134;2022-12-11T09:13:53;100701.84;;;-2.37;83.57
10064;BME280;5071;52.360;13.134;2022-12-11T09:18:58;100698.56;;;-2.32;82.19
10064;BME280;5071;52.360;13.134;2022-12-11T09:24:00;100698.06;;;-2.45;80.34
10064;BME280;5071;52.360;13.134;2022-12-11T09:29:03;100698.84;;;-2.47;80.62
10064;BME280;5071;52.360;13.134;2022-12-11T09:34:09;100690.97;;;-2.49;80.66
10064;BME280;5071;52.360;13.134;2022-12-11T09:39:13;100688.16;;;-2.54;81.25
10064;BME280;5071;52.360;13.134;2022-12-11T09:44:20;100676.66;;;-2.60;81.19
10064;BME280;5071;52.360;13.134;2022-12-11T09:49:32;100673.56;;;-2.51;80.87
10064;BME280;5071;52.360;13.134;2022-12-11T09:54:36;100666.41;;;-2.57;81.17
10064;BME280;5071;52.360;13.134;2022-12-11T09:59:49;100674.66;;;-2.45;80.85
10064;BME280;5071;52.360;13.134;2022-12-11T10:05:06;100664.84;;;-2.52;80.76
10064;BME280;5071;52.360;13.134;2022-12-11T10:10:22;100650.28;;;-2.48;81.14
10064;BME280;5071;52.360;13.134;2022-12-11T10:15:34;100647.88;;;-2.44;81.29
10064;BME280;5071;52.360;13.134;2022-12-11T10:20:38;100640.06;;;-2.21;81.21
10064;BME280;5071;52.360;13.134;2022-12-11T10:25:43;100638.16;;;-2.01;80.87
10064;BME280;5071;52.360;13.134;2022-12-11T10:30:48;100641.59;;;-2.26;80.79
10064;BME280;5071;52.360;13.134;2022-12-11T10:35:55;100645.13;;;-2.24;80.72
10064;BME280;5071;52.360;13.134;2022-12-11T10:41:00;100632.72;;;-2.31;81.32
10064;BME280;5071;52.360;13.134;2022-12-11T10:46:04;100641.09;;;-2.39;81.95
10064;BME280;5071;52.360;13.134;2022-12-11T10:51:07;100629.41;;;-2.27;82.04
10064;BME280;5071;52.360;13.134;2022-12-11T10:56:10;100624.25;;;-2.26;81.95
10064;BME280;5071;52.360;13.134;2022-12-11T11:01:14;100616.69;;;-2.44;82.84
10064;BME280;5071;52.360;13.134;2022-12-11T11:06:19;100613.72;;;-2.30;82.24
10064;BME280;5071;52.360;13.134;2022-12-11T11:11:25;100614.28;;;-2.15;81.95
10064;BME280;5071;52.360;13.134;2022-12-11T11:16:27;100617.44;;;-2.00;81.46
10064;BME280;5071;52.360;13.134;2022-12-11T11:21:31;100612.94;;;-2.04;80.77
10064;BME280;5071;52.360;13.134;2022-12-11T11:26:35;100598.53;;;-2.18;81.41
10064;BME280;5071;52.360;13.134;2022-12-11T11:32:11;100606.09;;;-2.02;80.68
10064;BME280;5071;52.360;13.134;2022-12-11T11:37:24;100587.47;;;-2.12;81.36
10064;BME280;5071;52.360;13.134;2022-12-11T11:42:36;100589.53;;;-2.04;80.65
10064;BME280;5071;52.360;13.134;2022-12-11T11:47:51;100578.47;;;-1.74;80.62
10064;BME280;5071;52.360;13.134;2022-12-11T11:53:03;100580.94;;;-1.77;80.30
10064;BME280;5071;52.360;13.134;2022-12-11T11:58:12;100577.00;;;-1.91;80.47
10064;BME280;5071;52.360;13.134;2022-12-11T12:03:17;100571.88;;;-2.12;80.68
10064;BME280;5071;52.360;13.134;2022-12-11T12:08:33;100576.94;;;-1.93;81.15
10064;BME280;5071;52.360;13.134;2022-12-11T12:13:45;100574.38;;;-1.91;80.95
10064;BME280;5071;52.360;13.134;2022-12-11T12:18:57;100566.53;;;-1.93;81.50
10064;BME280;5071;52.360;13.134;2022-12-11T12:24:14;100575.00;;;-1.99;81.70
10064;BME280;5071;52.360;13.134;2022-12-11T12:29:35;100573.22;;;-2.00;81.61
10064;BME280;5071;52.360;13.134;2022-12-11T12:34:53;100570.13;;;-1.89;81.51
10064;BME280;5071;52.360;13.134;2022-12-11T12:40:09;100575.09;;;-1.96;81.90
10064;BME280;5071;52.360;13.134;2022-12-11T12:45:20;100575.31;;;-1.89;82.17
10064;BME280;5071;52.360;13.134;2022-12-11T12:50:31;100573.06;;;-1.79;81.67
10064;BME280;5071;52.360;13.134;2022-12-11T12:55:36;100568.72;;;-1.80;82.05
10064;BME280;5071;52.360;13.134;2022-12-11T13:00:40;100557.78;;;-1.95;83.16
10064;BME280;5071;52.360;13.134;2022-12-11T13:05:54;100554.28;;;-1.96;83.21
10064;BME280;5071;52.360;13.134;2022-12-11T13:11:01;100559.38;;;-1.73;82.94
10064;BME280;5071;52.360;13.134;2022-12-11T13:16:24;100543.19;;;-1.90;83.15
10064;BME280;5071;52.360;13.134;2022-12-11T13:21:31;100547.13;;;-1.77;83.27
10064;BME280;5071;52.360;13.134;2022-12-11T13:26:35;100538.38;;;-1.79;83.44
10064;BME280;5071;52.360;13.134;2022-12-11T13:31:38;100541.09;;;-1.76;83.42
10064;BME280;5071;52.360;13.134;2022-12-11T13:36:45;100546.59;;;-1.92;83.67
10064;BME280;5071;52.360;13.134;2022-12-11T13:41:51;100536.81;;;-2.00;84.40
10064;BME280;5071;52.360;13.134;2022-12-11T13:46:55;100536.34;;;-1.88;84.17
10064;BME280;5071;52.360;13.134;2022-12-11T13:51:59;100536.13;;;-1.94;84.41
10064;BME280;5071;52.360;13.134;2022-12-11T13:57:14;100523.31;;;-1.89;84.46
10064;BME280;5071;52.360;13.134;2022-12-11T14:02:18;100527.75;;;-2.11;85.41
10064;BME280;5071;52.360;13.134;2022-12-11T14:07:24;100526.94;;;-2.08;85.70
10064;BME280;5071;52.360;13.134;2022-12-11T14:12:30;100528.88;;;-2.03;85.91
10064;BME280;5071;52.360;13.134;2022-12-11T14:17:34;100536.94;;;-1.97;85.84
10064;BME280;5071;52.360;13.134;2022-12-11T14:22:36;100539.72;;;-1.90;85.92
10064;BME280;5071;52.360;13.134;2022-12-11T14:27:46;100544.34;;;-2.07;86.47
10064;BME280;5071;52.360;13.134;2022-12-11T14:32:50;100551.09;;;-2.12;86.94
10064;BME280;5071;52.360;13.134;2022-12-11T14:37:55;100544.34;;;-2.07;86.47
10064;BME280;5071;52.360;13.134;2022-12-11T14:43:03;100535.72;;;-2.06;86.37
10064;BME280;5071;52.360;13.134;2022-12-11T14:48:13;100542.06;;;-1.98;86.50
10064;BME280;5071;52.360;13.134;2022-12-11T14:53:20;100542.66;;;-2.05;86.93
10064;BME280;5071;52.360;13.134;2022-12-11T14:58:26;100531.59;;;-2.00;86.75
10064;BME280;5071;52.360;13.134;2022-12-11T15:03:30;100533.16;;;-2.05;86.60
10064;BME280;5071;52.360;13.134;2022-12-11T15:08:34;100530.13;;;-2.17;87.04
10064;BME280;5071;52.360;13.134;2022-12-11T15:13:48;100531.19;;;-2.12;87.28
10064;BME280;5071;52.360;13.134;2022-12-11T15:18:52;100532.94;;;-2.11;87.35
10064;BME280;5071;52.360;13.134;2022-12-11T15:23:57;100529.28;;;-2.16;87.46
10064;BME280;5071;52.360;13.134;2022-12-11T15:29:02;100524.09;;;-2.16;87.72
10064;BME280;5071;52.360;13.134;2022-12-11T15:34:20;100535.53;;;-2.11;87.84
10064;BME280;5071;52.360;13.134;2022-12-11T15:39:22;100534.34;;;-2.21;88.03
10064;BME280;5071;52.360;13.134;2022-12-11T15:44:27;100533.41;;;-2.23;88.38
10064;BME280;5071;52.360;13.134;2022-12-11T15:49:29;100529.94;;;-2.23;88.71
10064;BME280;5071;52.360;13.134;2022-12-11T15:54:31;100533.59;;;-2.17;88.34
10064;BME280;5071;52.360;13.134;2022-12-11T15:59:34;100538.03;;;-2.14;88.24
10064;BME280;5071;52.360;13.134;2022-12-11T16:04:36;100549.47;;;-2.09;88.62
10064;BME280;5071;52.360;13.134;2022-12-11T16:09:38;100548.75;;;-2.05;88.35
10064;BME280;5071;52.360;13.134;2022-12-11T16:14:42;100536.28;;;-2.15;88.76
10064;BME280;5071;52.360;13.134;2022-12-11T16:19:44;100541.69;;;-2.09;88.80
10064;BME280;5071;52.360;13.134;2022-12-11T16:24:46;100535.66;;;-2.08;88.87
10064;BME280;5071;52.360;13.134;2022-12-11T16:29:50;100544.28;;;-2.09;88.85
10064;BME280;5071;52.360;13.134;2022-12-11T16:34:52;100541.00;;;-2.27;89.61
10064;BME280;5071;52.360;13.134;2022-12-11T16:39:54;100546.66;;;-2.15;89.27
10064;BME280;5071;52.360;13.134;2022-12-11T16:45:03;100539.69;;;-2.16;89.38
10064;BME280;5071;52.360;13.134;2022-12-11T16:50:06;100533.56;;;-2.18;89.78
10064;BME280;5071;52.360;13.134;2022-12-11T16:55:10;100539.94;;;-2.10;89.47
10064;BME280;5071;52.360;13.134;2022-12-11T17:00:15;100539.13;;;-2.07;89.25
10064;BME280;5071;52.360;13.134;2022-12-11T17:05:17;100537.69;;;-1.99;89.46
10064;BME280;5071;52.360;13.134;2022-12-11T17:10:19;100531.88;;;-1.92;88.82
10064;BME280;5071;52.360;13.134;2022-12-11T17:15:22;100541.19;;;-1.99;89.08
10064;BME280;5071;52.360;13.134;2022-12-11T17:20:24;100545.72;;;-1.93;89.26
10064;BME280;5071;52.360;13.134;2022-12-11T17:25:26;100538.59;;;-1.99;88.99
10064;BME280;5071;52.360;13.134;2022-12-11T17:30:29;100543.34;;;-2.11;89.74
10064;BME280;5071;52.360;13.134;2022-12-11T17:35:31;100543.78;;;-1.99;89.80
10064;BME280;5071;52.360;13.134;2022-12-11T17:40:34;100542.22;;;-1.93;89.71
10064;BME280;5071;52.360;13.134;2022-12-11T17:45:41;100536.00;;;-1.99;89.99
10064;BME280;5071;52.360;13.134;2022-12-11T17:50:44;100539.78;;;-1.89;90.12
10064;BME280;5071;52.360;13.134;2022-12-11T17:55:47;100529.94;;;-1.98;90.18
10064;BME280;5071;52.360;13.134;2022-12-11T18:00:52;100523.75;;;-2.01;90.27
10064;BME280;5071;52.360;13.134;2022-12-11T18:05:55;100533.59;;;-1.92;90.41
10064;BME280;5071;52.360;13.134;2022-12-11T18:11:03;100532.78;;;-1.91;90.68
10064;BME280;5071;52.360;13.134;2022-12-11T18:16:10;100527.19;;;-2.02;91.09
10064;BME280;5071;52.360;13.134;2022-12-11T18:21:15;100536.34;;;-1.88;90.88
10064;BME280;5071;52.360;13.134;2022-12-11T18:26:19;100519.28;;;-2.05;91.25
10064;BME280;5071;52.360;13.134;2022-12-11T18:31:22;100530.84;;;-1.97;91.56
10064;BME280;5071;52.360;13.134;2022-12-11T18:36:25;100533.59;;;-1.92;91.73
10064;BME280;5071;52.360;13.134;2022-12-11T18:41:27;100521.09;;;-2.03;92.01
10064;BME280;5071;52.360;13.134;2022-12-11T18:46:30;100534.00;;;-2.06;92.24
10064;BME280;5071;52.360;13.134;2022-12-11T18:51:33;100530.22;;;-2.14;92.64
10064;BME280;5071;52.360;13.134;2022-12-11T18:56:35;100520.13;;;-2.06;92.45
10064;BME280;5071;52.360;13.134;2022-12-11T19:01:38;100516.47;;;-2.11;92.88
10064;BME280;5071;52.360;13.134;2022-12-11T19:06:41;100514.47;;;-2.19;93.12
10064;BME280;5071;52.360;13.134;2022-12-11T19:11:43;100519.63;;;-2.20;93.64
10064;BME280;5071;52.360;13.134;2022-12-11T19:16:46;100516.53;;;-2.10;93.27
10064;BME280;5071;52.360;13.134;2022-12-11T19:21:49;100514.75;;;-2.11;93.30
10064;BME280;5071;52.360;13.134;2022-12-11T19:26:52;100521.88;;;-2.29;93.42
10064;BME280;5071;52.360;13.134;2022-12-11T19:31:56;100521.78;;;-2.32;93.76
10064;BME280;5071;52.360;13.134;2022-12-11T19:36:58;100521.81;;;-2.31;93.72
10064;BME280;5071;52.360;13.134;2022-12-11T19:42:01;100529.53;;;-2.34;93.90
10064;BME280;5071;52.360;13.134;2022-12-11T19:47:04;100524.41;;;-2.32;94.17
10064;BME280;5071;52.360;13.134;2022-12-11T19:52:07;100527.00;;;-2.32;94.56
10064;BME280;5071;52.360;13.134;2022-12-11T19:57:10;100528.19;;;-2.23;94.54
10064;BME280;5071;52.360;13.134;2022-12-11T20:02:14;100527.53;;;-2.17;93.88
10064;BME280;5071;52.360;13.134;2022-12-11T20:07:19;100520.66;;;-2.15;94.18
10064;BME280;5071;52.360;13.134;2022-12-11T20:12:26;100521.28;;;-2.22;94.15
10064;BME280;5071;52.360;13.134;2022-12-11T20:17:30;100525.31;;;-2.30;94.64
10064;BME280;5071;52.360;13.134;2022-12-11T20:22:33;100524.59;;;-2.26;94.90
10064;BME280;5071;52.360;13.134;2022-12-11T20:27:36;100520.06;;;-2.32;94.78
10064;BME280;5071;52.360;13.134;2022-12-11T20:32:41;100514.59;;;-2.40;95.10
10064;BME280;5071;52.360;13.134;2022-12-11T20:37:44;100513.75;;;-2.39;95.01
10064;BME280;5071;52.360;13.134;2022-12-11T20:42:46;100518.56;;;-2.25;94.48
10064;BME280;5071;52.360;13.134;2022-12-11T20:47:50;100514.69;;;-2.37;94.99
10064;BME280;5071;52.360;13.134;2022-12-11T20:52:52;100527.00;;;-2.32;94.53
10064;BME280;5071;52.360;13.134;2022-12-11T20:57:55;100530.28;;;-2.37;94.97
10064;BME280;5071;52.360;13.134;2022-12-11T21:02:59;100524.66;;;-2.49;95.14
10064;BME280;5071;52.360;13.134;2022-12-11T21:08:02;100517.63;;;-2.27;94.90
10064;BME280;5071;52.360;13.134;2022-12-11T21:13:05;100513.28;;;-2.28;94.21
10064;BME280;5071;52.360;13.134;2022-12-11T21:18:08;100519.88;;;-2.37;94.85
10064;BME280;5071;52.360;13.134;2022-12-11T21:23:10;100514.94;;;-2.30;94.98
10064;BME280;5071;52.360;13.134;2022-12-11T21:28:12;100517.88;;;-2.20;94.52
10064;BME280;5071;52.360;13.134;2022-12-11T21:33:15;100522.00;;;-2.26;94.00
10064;BME280;5071;52.360;13.134;2022-12-11T21:38:18;100520.59;;;-2.17;94.34
10064;BME280;5071;52.360;13.134;2022-12-11T21:43:20;100513.34;;;-2.25;94.53
10064;BME280;5071;52.360;13.134;2022-12-11T21:48:24;100523.94;;;-2.21;94.68
10064;BME280;5071;52.360;13.134;2022-12-11T21:53:26;100517.00;;;-2.20;94.64
10064;BME280;5071;52.360;13.134;2022-12-11T21:58:28;100513.41;;;-2.24;95.36
10064;BME280;5071;52.360;13.134;2022-12-11T22:03:32;100508.72;;;-2.34;95.84
10064;BME280;5071;52.360;13.134;2022-12-11T22:08:34;100511.81;;;-2.20;95.95
10064;BME280;5071;52.360;13.134;2022-12-11T22:13:37;100514.81;;;-2.09;96.17
10064;BME280;5071;52.360;13.134;2022-12-11T22:18:41;100514.53;;;-2.17;95.65
10064;BME280;5071;52.360;13.134;2022-12-11T22:23:43;100509.72;;;-2.06;95.97
10064;BME280;5071;52.360;13.134;2022-12-11T22:28:46;100508.19;;;-2.00;96.03
10064;BME280;5071;52.360;13.134;2022-12-11T22:33:50;100504.88;;;-2.21;96.20
10064;BME280;5071;52.360;13.134;2022-12-11T22:38:53;100500.06;;;-2.09;96.43
10064;BME280;5071;52.360;13.134;2022-12-11T22:43:56;100492.69;;;-2.22;96.98
10064;BME280;5071;52.360;13.134;2022-12-11T22:48:59;100495.00;;;-2.30;98.05
10064;BME280;5071;52.360;13.134;2022-12-11T22:54:02;100488.56;;;-2.41;98.32
10064;BME280;5071;52.360;13.134;2022-12-11T22:59:04;100480.91;;;-2.37;98.31
10064;BME280;5071;52.360;13.134;2022-12-11T23:04:07;100485.28;;;-2.36;98.38
10064;BME280;5071;52.360;13.134;2022-12-11T23:09:10;100489.38;;;-2.42;98.60
10064;BME280;5071;52.360;13.134;2022-12-11T23:14:14;100501.41;;;-2.44;98.61
10064;BME280;5071;52.360;13.134;2022-12-11T23:19:18;100498.94;;;-2.41;98.59
10064;BME280;5071;52.360;13.134;2022-12-11T23:24:26;100497.13;;;-2.44;98.49
10064;BME280;5071;52.360;13.134;2022-12-11T23:29:30;100499.53;;;-2.48;98.89
10064;BME280;5071;52.360;13.134;2022-12-11T23:34:34;100511.06;;;-2.42;98.68
10064;BME280;5071;52.360;13.134;2022-12-11T23:39:36;100522.13;;;-2.47;99.16
10064;BME280;5071;52.360;13.134;2022-12-11T23:44:39;100530.56;;;-2.53;99.61
10064;BME280;5071;52.360;13.134;2022-12-11T23:49:42;100517.81;;;-2.47;99.15
10064;BME280;5071;52.360;13.134;2022-12-11T23:54:44;100514.66;;;-2.62;99.85
10064;BME280;5071;52.360;13.134;2022-12-11T23:59:46;100511.03;;;-2.66;100.00
